Time;durP1;ratioP1;P1;durP2;ratioP2;P2;SDS_P1;SDS_P2;PMS_P1;PMS_P2;Temp;Humidity;BMP_temperature;BMP_pressure;BME280_temperature;BME280_humidity;BME280_pressure;Samples;Min_cycle;Max_cycle;Signal;HPM_P1;HPM_P2
2021/12/24 00:00:05;;;;;;;;;;;22.50;29.00;;;;;;482539;246;1267;-47
2021/12/24 00:02:06;;;;;;;;;;;22.30;29.10;;;;;;482173;246;1497;-47
2021/12/24 00:04:09;;;;;;;;;;;22.10;29.40;;;;;;482738;246;2140;-46
2021/12/24 00:06:09;;;;;;;;;;;21.90;29.60;;;;;;482461;246;2237;-46
2021/12/24 00:08:11;;;;;;;;;;;21.80;29.80;;;;;;482279;246;1295;-47
2021/12/24 00:10:12;;;;;;;;;;;21.60;29.90;;;;;;482351;246;1082;-46
2021/12/24 00:12:17;;;;;;;;;;;21.50;30.00;;;;;;482296;246;1304;-46
2021/12/24 00:14:15;;;;;;;;;;;21.40;30.10;;;;;;482180;247;2468;-46
2021/12/24 00:16:22;;;;;;;;;;;21.40;30.20;;;;;;482278;246;1233;-47
2021/12/24 00:18:29;;;;;;;;;;;21.30;30.30;;;;;;482067;247;2251;-46
2021/12/24 00:21:00;;;;;;;;;;;21.30;30.40;;;;;;481958;247;2220;-46
2021/12/24 00:23:05;;;;;;;;;;;21.30;30.40;;;;;;480865;247;2201;-46
2021/12/24 00:36:19;;;;;;;;;;;21.00;30.80;;;;;;482459;247;1624;-46
2021/12/24 00:38:20;;;;;;;;;;;21.00;30.80;;;;;;482280;246;1552;-47
2021/12/24 00:40:22;;;;;;;;;;;21.00;30.80;;;;;;482299;246;1059;-46
2021/12/24 00:42:23;;;;;;;;;;;20.90;30.80;;;;;;482194;246;2197;-47
2021/12/24 00:44:24;;;;;;;;;;;20.90;30.90;;;;;;482704;246;1323;-46
2021/12/24 00:46:26;;;;;;;;;;;20.90;30.90;;;;;;482219;246;1230;-46
2021/12/24 00:48:27;;;;;;;;;;;20.90;30.90;;;;;;482471;246;1052;-46
2021/12/24 00:50:28;;;;;;;;;;;20.90;30.90;;;;;;482347;246;1356;-46
2021/12/24 00:52:45;;;;;;;;;;;20.90;31.00;;;;;;482168;246;1619;-46
2021/12/24 00:56:54;;;;;;;;;;;20.90;31.00;;;;;;482123;247;1348;-46
2021/12/24 00:58:56;;;;;;;;;;;20.80;31.00;;;;;;482543;246;1186;-46
2021/12/24 01:00:57;;;;;;;;;;;20.80;31.10;;;;;;482380;246;2315;-46
2021/12/24 01:02:58;;;;;;;;;;;20.80;31.10;;;;;;482279;246;2180;-46
2021/12/24 01:04:59;;;;;;;;;;;20.80;31.10;;;;;;482554;246;1022;-46
2021/12/24 01:07:01;;;;;;;;;;;20.80;31.10;;;;;;482282;246;1356;-46
2021/12/24 01:09:02;;;;;;;;;;;20.70;31.10;;;;;;482721;246;1234;-46
2021/12/24 01:11:03;;;;;;;;;;;20.70;31.10;;;;;;482312;246;1354;-46
2021/12/24 01:13:05;;;;;;;;;;;20.70;31.10;;;;;;482671;246;1332;-46
2021/12/24 01:15:06;;;;;;;;;;;20.70;31.10;;;;;;482563;246;1252;-46
2021/12/24 01:17:14;;;;;;;;;;;20.60;31.20;;;;;;482287;246;1314;-46
2021/12/24 01:19:13;;;;;;;;;;;20.60;31.20;;;;;;481810;247;2192;-47
2021/12/24 01:21:23;;;;;;;;;;;20.60;31.20;;;;;;481892;247;2085;-46
2021/12/24 01:23:31;;;;;;;;;;;20.60;31.20;;;;;;482043;247;2201;-46
2021/12/24 01:25:32;;;;;;;;;;;20.60;31.20;;;;;;481922;247;2100;-46
2021/12/24 01:27:50;;;;;;;;;;;20.60;31.20;;;;;;481838;247;2135;-46
2021/12/24 01:29:57;;;;;;;;;;;20.60;31.20;;;;;;481321;247;1793;-46
2021/12/24 01:39:13;;;;;;;;;;;20.60;31.30;;;;;;458513;260;1176;-46
2021/12/24 01:41:19;;;;;;;;;;;20.60;31.30;;;;;;459915;246;1486;-46
2021/12/24 01:43:10;;;;;;;;;;;20.50;31.30;;;;;;481124;247;2197;-46
2021/12/24 01:45:12;;;;;;;;;;;20.50;31.40;;;;;;484056;246;1477;-46
2021/12/24 01:47:13;;;;;;;;;;;20.50;31.40;;;;;;480735;247;1560;-46
2021/12/24 01:49:14;;;;;;;;;;;20.50;31.40;;;;;;481651;247;1025;-46
2021/12/24 01:51:16;;;;;;;;;;;20.50;31.40;;;;;;483872;246;1485;-46
2021/12/24 01:53:17;;;;;;;;;;;20.50;31.30;;;;;;480822;248;1262;-46
2021/12/24 01:55:19;;;;;;;;;;;20.60;31.40;;;;;;481458;247;1053;-46
2021/12/24 01:57:20;;;;;;;;;;;20.60;31.30;;;;;;483934;246;1203;-46
2021/12/24 01:59:21;;;;;;;;;;;20.50;31.30;;;;;;480790;248;1058;-46
2021/12/24 02:01:27;;;;;;;;;;;20.50;31.40;;;;;;481093;247;1491;-46
2021/12/24 02:03:24;;;;;;;;;;;20.50;31.30;;;;;;483804;246;2129;-46
2021/12/24 02:05:25;;;;;;;;;;;20.50;31.40;;;;;;481228;247;1161;-46
2021/12/24 02:07:27;;;;;;;;;;;20.50;31.40;;;;;;481306;247;1712;-46
2021/12/24 02:09:28;;;;;;;;;;;20.50;31.50;;;;;;483991;246;1192;-47
2021/12/24 02:11:29;;;;;;;;;;;20.50;31.40;;;;;;480947;247;1193;-45
2021/12/24 02:13:30;;;;;;;;;;;20.50;31.50;;;;;;481254;247;993;-46
2021/12/24 02:15:43;;;;;;;;;;;20.50;31.40;;;;;;483549;246;1088;-46
2021/12/24 02:17:53;;;;;;;;;;;20.50;31.40;;;;;;480273;248;2376;-46
2021/12/24 02:29:08;;;;;;;;;;;20.50;31.40;;;;;;482281;247;1243;-46
2021/12/24 02:31:09;;;;;;;;;;;20.50;31.40;;;;;;482482;246;1330;-46
2021/12/24 02:33:10;;;;;;;;;;;20.40;31.40;;;;;;482694;246;1679;-46
2021/12/24 02:35:12;;;;;;;;;;;20.40;31.50;;;;;;482417;246;1043;-46
2021/12/24 02:37:13;;;;;;;;;;;20.40;31.50;;;;;;482044;246;1305;-46
2021/12/24 02:39:14;;;;;;;;;;;20.40;31.40;;;;;;482446;246;1033;-46
2021/12/24 02:41:16;;;;;;;;;;;20.40;31.40;;;;;;482264;246;1238;-46
2021/12/24 02:43:20;;;;;;;;;;;20.40;31.50;;;;;;482701;246;2126;-46
2021/12/24 02:45:18;;;;;;;;;;;20.40;31.40;;;;;;482365;247;1541;-46
2021/12/24 02:47:41;;;;;;;;;;;20.40;31.50;;;;;;482146;246;1326;-46
2021/12/24 02:54:24;;;;;;;;;;;20.40;31.60;;;;;;482312;246;1742;-46
2021/12/24 02:56:28;;;;;;;;;;;20.40;31.60;;;;;;482324;246;1256;-46
2021/12/24 02:58:27;;;;;;;;;;;20.40;31.60;;;;;;482380;247;2189;-46
2021/12/24 03:00:29;;;;;;;;;;;20.40;31.60;;;;;;482423;246;1075;-46
2021/12/24 03:02:31;;;;;;;;;;;20.40;31.60;;;;;;482341;246;2160;-46
2021/12/24 03:04:32;;;;;;;;;;;20.40;31.60;;;;;;482740;246;2192;-46
2021/12/24 03:06:33;;;;;;;;;;;20.30;31.60;;;;;;482212;246;1370;-46
2021/12/24 03:08:35;;;;;;;;;;;20.40;31.60;;;;;;482298;246;1238;-45
2021/12/24 03:10:37;;;;;;;;;;;20.40;31.50;;;;;;482739;246;1062;-46
2021/12/24 03:12:37;;;;;;;;;;;20.40;31.70;;;;;;482422;246;1610;-46
2021/12/24 03:14:39;;;;;;;;;;;20.30;31.60;;;;;;482325;246;1052;-46
2021/12/24 03:16:40;;;;;;;;;;;20.30;31.70;;;;;;482198;246;1261;-46
2021/12/24 03:18:43;;;;;;;;;;;20.30;31.70;;;;;;482369;246;1280;-46
2021/12/24 03:20:43;;;;;;;;;;;20.30;31.70;;;;;;482508;247;2072;-46
2021/12/24 03:22:50;;;;;;;;;;;20.30;31.60;;;;;;482508;246;1313;-46
2021/12/24 03:24:46;;;;;;;;;;;20.40;31.70;;;;;;481964;247;2188;-46
2021/12/24 03:26:47;;;;;;;;;;;20.30;31.60;;;;;;482356;246;1344;-46
2021/12/24 03:28:49;;;;;;;;;;;20.30;31.70;;;;;;482310;246;1079;-46
2021/12/24 03:30:50;;;;;;;;;;;20.30;31.60;;;;;;482636;246;1103;-46
2021/12/24 03:32:51;;;;;;;;;;;20.40;31.70;;;;;;482377;246;1207;-46
2021/12/24 03:34:53;;;;;;;;;;;20.40;31.60;;;;;;482488;246;1038;-46
2021/12/24 03:36:54;;;;;;;;;;;20.30;31.70;;;;;;482496;246;1360;-47
2021/12/24 03:38:55;;;;;;;;;;;20.30;31.70;;;;;;482284;246;1083;-47
2021/12/24 03:40:57;;;;;;;;;;;20.30;31.70;;;;;;482725;246;1173;-46
2021/12/24 03:42:58;;;;;;;;;;;20.30;31.80;;;;;;482245;246;1241;-46
2021/12/24 03:45:08;;;;;;;;;;;20.30;31.80;;;;;;482758;246;2118;-46
2021/12/24 03:47:06;;;;;;;;;;;20.30;31.80;;;;;;481559;247;2225;-46
2021/12/24 03:49:07;;;;;;;;;;;20.20;31.80;;;;;;481999;247;2241;-47
2021/12/24 03:51:19;;;;;;;;;;;20.20;31.80;;;;;;481909;247;2350;-46
2021/12/24 03:54:55;;;;;;;;;;;20.20;31.80;;;;;;481229;247;2124;-46
2021/12/24 03:55:06;;;;;;;;;;;20.20;31.90;;;;;;480904;247;1889;-46
2021/12/24 03:57:08;;;;;;;;;;;20.20;31.90;;;;;;482126;246;1392;-46
2021/12/24 03:59:09;;;;;;;;;;;20.20;31.80;;;;;;482519;246;1050;-46
2021/12/24 04:01:10;;;;;;;;;;;20.20;31.90;;;;;;482271;246;1035;-46
2021/12/24 04:03:11;;;;;;;;;;;20.20;31.90;;;;;;482471;246;1404;-46
2021/12/24 04:05:13;;;;;;;;;;;20.20;31.90;;;;;;482519;246;2118;-46
2021/12/24 04:07:14;;;;;;;;;;;20.20;31.90;;;;;;482212;246;1140;-46
2021/12/24 04:09:15;;;;;;;;;;;20.20;31.90;;;;;;482716;246;1064;-46
2021/12/24 04:11:17;;;;;;;;;;;20.10;31.90;;;;;;482372;246;1366;-46
2021/12/24 04:13:18;;;;;;;;;;;20.20;32.00;;;;;;482299;246;1160;-45
2021/12/24 04:15:19;;;;;;;;;;;20.20;31.90;;;;;;482478;246;1062;-46
2021/12/24 04:17:21;;;;;;;;;;;20.20;31.80;;;;;;482418;246;1353;-46
2021/12/24 04:19:38;;;;;;;;;;;20.20;31.80;;;;;;482415;246;1125;-46
2021/12/24 04:26:05;;;;;;;;;;;20.20;31.90;;;;;;482656;247;1379;-46
2021/12/24 04:28:06;;;;;;;;;;;20.20;31.90;;;;;;482236;246;1140;-47
2021/12/24 04:30:10;;;;;;;;;;;20.10;31.90;;;;;;482308;246;998;-46
2021/12/24 04:32:12;;;;;;;;;;;20.20;31.90;;;;;;482049;247;1865;-46
2021/12/24 04:34:12;;;;;;;;;;;20.20;31.90;;;;;;482097;247;2232;-46
2021/12/24 04:36:33;;;;;;;;;;;20.20;32.00;;;;;;482471;246;2592;-46
2021/12/24 04:38:38;;;;;;;;;;;20.20;31.90;;;;;;481351;247;2207;-46
2021/12/24 04:52:46;;;;;;;;;;;20.10;32.00;;;;;;482205;247;1211;-46
2021/12/24 05:01:39;;;;;;;;;;;20.10;31.90;;;;;;482210;247;1162;-46
2021/12/24 05:03:35;;;;;;;;;;;20.10;32.00;;;;;;481655;247;1499;-46
2021/12/24 05:05:43;;;;;;;;;;;20.10;31.90;;;;;;482129;246;2181;-46
2021/12/24 05:08:06;;;;;;;;;;;20.10;31.90;;;;;;481927;247;1325;-46
2021/12/24 05:09:51;;;;;;;;;;;20.00;32.00;;;;;;481134;247;2178;-46
2021/12/24 05:11:52;;;;;;;;;;;20.10;32.00;;;;;;482331;246;1341;-46
2021/12/24 05:13:53;;;;;;;;;;;20.10;32.00;;;;;;482278;246;1059;-47
2021/12/24 05:16:04;;;;;;;;;;;20.20;31.90;;;;;;482658;246;1268;-47
2021/12/24 05:18:09;;;;;;;;;;;20.40;31.70;;;;;;481704;247;2154;-47
2021/12/24 05:22:24;;;;;;;;;;;20.80;31.00;;;;;;482134;247;1567;-47
2021/12/24 05:24:26;;;;;;;;;;;20.90;30.70;;;;;;482703;246;2169;-47
2021/12/24 05:26:27;;;;;;;;;;;21.00;30.60;;;;;;482160;246;2555;-46
2021/12/24 05:28:28;;;;;;;;;;;21.10;30.60;;;;;;482507;246;1172;-46
2021/12/24 05:30:29;;;;;;;;;;;21.10;30.40;;;;;;482474;246;1316;-46
2021/12/24 05:32:30;;;;;;;;;;;21.20;30.30;;;;;;482360;246;1185;-46
2021/12/24 05:34:33;;;;;;;;;;;21.20;30.20;;;;;;482316;246;1200;-46
2021/12/24 05:36:33;;;;;;;;;;;21.30;30.30;;;;;;482119;246;2264;-47
2021/12/24 05:38:34;;;;;;;;;;;21.30;30.10;;;;;;482574;246;1257;-46
2021/12/24 05:40:36;;;;;;;;;;;21.40;30.00;;;;;;482218;246;1244;-46
2021/12/24 05:42:37;;;;;;;;;;;21.40;30.00;;;;;;482200;246;1125;-46
2021/12/24 05:44:38;;;;;;;;;;;21.50;30.00;;;;;;482259;246;2188;-46
2021/12/24 05:46:40;;;;;;;;;;;21.50;30.00;;;;;;482582;246;1154;-47
2021/12/24 05:48:41;;;;;;;;;;;21.50;30.00;;;;;;482528;246;2265;-46
2021/12/24 05:50:42;;;;;;;;;;;21.50;29.90;;;;;;482629;246;1328;-47
2021/12/24 05:52:44;;;;;;;;;;;21.60;29.90;;;;;;482582;246;1179;-47
2021/12/24 05:54:45;;;;;;;;;;;21.60;29.90;;;;;;482264;246;1199;-47
2021/12/24 05:56:46;;;;;;;;;;;21.60;29.90;;;;;;482163;246;1164;-47
2021/12/24 05:58:48;;;;;;;;;;;21.70;29.90;;;;;;482412;246;1203;-46
2021/12/24 06:00:49;;;;;;;;;;;21.70;29.80;;;;;;482326;246;1202;-47
2021/12/24 06:02:50;;;;;;;;;;;21.70;29.80;;;;;;482540;246;1217;-47
2021/12/24 06:04:51;;;;;;;;;;;21.70;29.80;;;;;;482314;246;2157;-47
2021/12/24 06:06:53;;;;;;;;;;;21.80;29.80;;;;;;482159;246;1344;-46
2021/12/24 06:08:54;;;;;;;;;;;21.70;29.80;;;;;;482277;246;1062;-47
2021/12/24 06:10:56;;;;;;;;;;;21.80;29.80;;;;;;482281;246;1091;-47
2021/12/24 06:12:57;;;;;;;;;;;21.80;29.70;;;;;;482610;246;1275;-47
2021/12/24 06:15:03;;;;;;;;;;;21.90;29.70;;;;;;482717;246;1122;-47
2021/12/24 06:17:02;;;;;;;;;;;21.80;29.70;;;;;;481929;247;2080;-46
2021/12/24 06:19:03;;;;;;;;;;;21.90;29.70;;;;;;482438;246;2369;-46
2021/12/24 06:21:04;;;;;;;;;;;21.90;29.70;;;;;;482354;247;1778;-47
2021/12/24 06:23:07;;;;;;;;;;;21.90;29.70;;;;;;482174;246;1257;-47
2021/12/24 06:25:06;;;;;;;;;;;21.90;29.70;;;;;;482292;247;2261;-47
2021/12/24 06:27:07;;;;;;;;;;;22.00;29.70;;;;;;482337;246;1251;-46
2021/12/24 06:29:09;;;;;;;;;;;22.00;29.70;;;;;;482696;246;1054;-47
2021/12/24 06:31:10;;;;;;;;;;;22.00;29.70;;;;;;482304;246;1184;-47
2021/12/24 06:33:11;;;;;;;;;;;22.00;29.70;;;;;;482673;246;1209;-46
2021/12/24 06:35:13;;;;;;;;;;;22.00;29.70;;;;;;482254;246;1142;-46
2021/12/24 06:37:14;;;;;;;;;;;22.00;29.60;;;;;;482208;246;1204;-47
2021/12/24 06:39:15;;;;;;;;;;;22.00;29.60;;;;;;482350;246;1082;-46
2021/12/24 06:41:16;;;;;;;;;;;22.00;29.60;;;;;;482185;246;1353;-47
2021/12/24 06:43:18;;;;;;;;;;;22.10;29.70;;;;;;482675;246;1197;-46
2021/12/24 06:45:23;;;;;;;;;;;22.10;29.60;;;;;;482709;246;2134;-47
2021/12/24 06:47:21;;;;;;;;;;;22.10;29.60;;;;;;482116;247;1763;-47
2021/12/24 06:49:22;;;;;;;;;;;22.10;29.60;;;;;;482295;246;1230;-46
2021/12/24 06:51:23;;;;;;;;;;;22.10;29.60;;;;;;482339;246;1234;-47
2021/12/24 06:53:25;;;;;;;;;;;22.10;29.60;;;;;;482492;246;1091;-46
2021/12/24 06:55:26;;;;;;;;;;;22.10;29.60;;;;;;482225;246;1583;-46
2021/12/24 06:57:27;;;;;;;;;;;22.10;29.60;;;;;;482167;246;1245;-46
2021/12/24 06:59:29;;;;;;;;;;;22.10;29.60;;;;;;482608;246;1044;-47
2021/12/24 07:01:30;;;;;;;;;;;22.10;29.50;;;;;;482478;246;1303;-47
2021/12/24 07:03:31;;;;;;;;;;;22.10;29.50;;;;;;482686;246;1078;-46
2021/12/24 07:05:32;;;;;;;;;;;22.20;29.60;;;;;;482240;246;2189;-46
2021/12/24 07:07:34;;;;;;;;;;;22.20;29.60;;;;;;482434;246;1195;-47
2021/12/24 07:09:41;;;;;;;;;;;22.20;29.60;;;;;;482247;246;1052;-46
2021/12/24 07:11:36;;;;;;;;;;;22.20;29.60;;;;;;482084;247;2209;-47
2021/12/24 07:13:38;;;;;;;;;;;22.20;29.60;;;;;;482668;246;1080;-46
2021/12/24 07:15:39;;;;;;;;;;;22.20;29.60;;;;;;482672;246;977;-47
2021/12/24 07:17:40;;;;;;;;;;;22.20;29.60;;;;;;482162;246;1152;-46
2021/12/24 07:19:42;;;;;;;;;;;22.20;29.60;;;;;;482250;246;1177;-46
2021/12/24 07:21:43;;;;;;;;;;;22.20;29.60;;;;;;482148;246;1166;-47
2021/12/24 07:23:44;;;;;;;;;;;22.20;29.50;;;;;;482368;246;1183;-46
2021/12/24 07:25:46;;;;;;;;;;;22.30;29.60;;;;;;482721;246;2114;-47
2021/12/24 07:27:47;;;;;;;;;;;22.30;29.50;;;;;;482292;246;1227;-46
2021/12/24 07:29:49;;;;;;;;;;;22.20;29.50;;;;;;482274;246;1050;-46
2021/12/24 07:31:50;;;;;;;;;;;22.30;29.50;;;;;;482380;246;1062;-47
2021/12/24 07:33:51;;;;;;;;;;;22.30;29.60;;;;;;482316;246;1221;-47
2021/12/24 07:35:53;;;;;;;;;;;22.30;29.50;;;;;;482275;246;1188;-47
2021/12/24 07:37:54;;;;;;;;;;;22.30;29.50;;;;;;482212;246;1390;-46
2021/12/24 07:39:55;;;;;;;;;;;22.30;29.60;;;;;;482686;246;1089;-46
2021/12/24 07:41:57;;;;;;;;;;;22.30;29.60;;;;;;482546;246;1390;-47
2021/12/24 07:43:58;;;;;;;;;;;22.30;29.50;;;;;;482439;246;1068;-46
2021/12/24 07:45:59;;;;;;;;;;;22.30;29.50;;;;;;482509;246;2126;-47
2021/12/24 07:48:11;;;;;;;;;;;22.30;29.50;;;;;;482645;246;1247;-46
2021/12/24 07:50:18;;;;;;;;;;;22.30;29.50;;;;;;482265;247;2086;-47
2021/12/24 07:52:17;;;;;;;;;;;22.30;29.50;;;;;;481955;247;2198;-47
2021/12/24 07:54:18;;;;;;;;;;;22.30;29.60;;;;;;482304;246;1027;-47
2021/12/24 07:56:19;;;;;;;;;;;22.30;29.50;;;;;;482198;246;1226;-47
2021/12/24 07:58:21;;;;;;;;;;;22.40;29.60;;;;;;482582;246;1285;-47
2021/12/24 08:00:25;;;;;;;;;;;22.40;29.60;;;;;;482272;246;1066;-46
2021/12/24 08:02:26;;;;;;;;;;;22.40;29.60;;;;;;481972;247;2127;-47
2021/12/24 08:04:25;;;;;;;;;;;22.40;29.50;;;;;;482449;247;2003;-46
2021/12/24 08:06:26;;;;;;;;;;;22.40;29.50;;;;;;482148;246;2201;-46
2021/12/24 08:08:28;;;;;;;;;;;22.40;29.50;;;;;;482373;246;1313;-47
2021/12/24 08:10:30;;;;;;;;;;;22.40;29.50;;;;;;482323;246;1383;-46
2021/12/24 08:12:31;;;;;;;;;;;22.40;29.50;;;;;;482437;246;1281;-47
2021/12/24 08:14:32;;;;;;;;;;;22.40;29.50;;;;;;482307;246;1041;-47
2021/12/24 08:16:33;;;;;;;;;;;22.40;29.50;;;;;;482500;246;1150;-47
2021/12/24 08:18:36;;;;;;;;;;;22.40;29.50;;;;;;482675;246;1229;-46
2021/12/24 08:20:36;;;;;;;;;;;22.40;29.50;;;;;;482127;247;2506;-46
2021/12/24 08:22:37;;;;;;;;;;;22.40;29.50;;;;;;482386;246;1116;-47
2021/12/24 08:24:39;;;;;;;;;;;22.50;29.50;;;;;;482263;246;1420;-46
2021/12/24 08:26:40;;;;;;;;;;;22.50;29.50;;;;;;482169;246;2137;-46
2021/12/24 08:28:41;;;;;;;;;;;22.50;29.50;;;;;;482725;246;1094;-47
2021/12/24 08:30:43;;;;;;;;;;;22.50;29.50;;;;;;482611;246;1360;-46
2021/12/24 08:32:44;;;;;;;;;;;22.50;29.60;;;;;;482161;246;1271;-47
2021/12/24 08:34:47;;;;;;;;;;;22.50;29.60;;;;;;482266;246;1174;-47
2021/12/24 08:36:47;;;;;;;;;;;22.50;29.50;;;;;;482324;246;2510;-47
2021/12/24 08:38:48;;;;;;;;;;;22.50;29.50;;;;;;482297;246;976;-47
2021/12/24 08:40:49;;;;;;;;;;;22.50;29.50;;;;;;482388;246;1226;-47
2021/12/24 08:42:51;;;;;;;;;;;22.50;29.50;;;;;;482212;246;1165;-46
2021/12/24 08:44:52;;;;;;;;;;;22.50;29.50;;;;;;482473;246;1061;-47
2021/12/24 08:46:54;;;;;;;;;;;22.50;29.50;;;;;;482078;246;2191;-46
2021/12/24 08:48:55;;;;;;;;;;;22.50;29.50;;;;;;482689;246;1239;-47
2021/12/24 08:50:56;;;;;;;;;;;22.50;29.50;;;;;;482355;246;1426;-46
2021/12/24 08:52:58;;;;;;;;;;;22.50;29.50;;;;;;482154;246;1242;-47
2021/12/24 08:54:59;;;;;;;;;;;22.50;29.50;;;;;;482429;246;946;-47
2021/12/24 08:57:00;;;;;;;;;;;22.50;29.50;;;;;;482269;246;1247;-47
2021/12/24 08:59:02;;;;;;;;;;;22.50;29.50;;;;;;482258;246;1220;-47
2021/12/24 09:01:03;;;;;;;;;;;22.50;29.50;;;;;;482225;246;1188;-46
2021/12/24 09:03:04;;;;;;;;;;;22.50;29.50;;;;;;482165;246;1148;-47
2021/12/24 09:05:05;;;;;;;;;;;22.60;29.50;;;;;;482256;246;1149;-47
2021/12/24 09:07:07;;;;;;;;;;;22.60;29.60;;;;;;482545;246;2189;-46
2021/12/24 09:09:10;;;;;;;;;;;22.60;29.60;;;;;;482444;246;1123;-47
2021/12/24 09:11:09;;;;;;;;;;;22.60;29.60;;;;;;482086;246;2203;-47
2021/12/24 09:13:11;;;;;;;;;;;22.60;29.60;;;;;;482677;246;1157;-47
2021/12/24 09:15:12;;;;;;;;;;;22.60;29.50;;;;;;482292;246;1083;-47
2021/12/24 09:17:14;;;;;;;;;;;22.60;29.60;;;;;;482301;246;1453;-47
2021/12/24 09:19:19;;;;;;;;;;;22.60;29.60;;;;;;482362;246;1074;-47
2021/12/24 09:21:19;;;;;;;;;;;22.60;29.50;;;;;;482099;247;1881;-47
2021/12/24 09:23:18;;;;;;;;;;;22.60;29.50;;;;;;482027;247;2482;-46
2021/12/24 09:25:21;;;;;;;;;;;22.60;29.50;;;;;;482233;246;2126;-47
2021/12/24 09:27:21;;;;;;;;;;;22.60;29.60;;;;;;482131;247;2027;-46
2021/12/24 09:29:22;;;;;;;;;;;22.60;29.60;;;;;;482682;246;1047;-47
2021/12/24 09:31:23;;;;;;;;;;;22.60;29.70;;;;;;482460;246;1171;-47
2021/12/24 09:33:24;;;;;;;;;;;22.50;29.80;;;;;;482473;246;1058;-46
2021/12/24 09:35:26;;;;;;;;;;;22.20;30.00;;;;;;482337;246;1261;-47
2021/12/24 09:37:27;;;;;;;;;;;22.00;30.20;;;;;;482591;246;1109;-47
2021/12/24 09:39:29;;;;;;;;;;;21.70;30.50;;;;;;482601;246;1021;-46
2021/12/24 09:41:30;;;;;;;;;;;21.60;30.90;;;;;;482595;246;1339;-46
2021/12/24 09:43:31;;;;;;;;;;;21.50;31.00;;;;;;482229;246;1054;-46
2021/12/24 09:45:33;;;;;;;;;;;21.50;31.10;;;;;;482340;246;2126;-47
2021/12/24 09:47:34;;;;;;;;;;;21.40;31.20;;;;;;482143;246;1060;-46
2021/12/24 09:49:35;;;;;;;;;;;21.40;31.30;;;;;;482471;246;1079;-46
2021/12/24 09:51:37;;;;;;;;;;;21.30;31.30;;;;;;482201;246;1418;-46
2021/12/24 09:53:38;;;;;;;;;;;21.30;31.40;;;;;;482198;246;1997;-46
2021/12/24 09:55:39;;;;;;;;;;;21.20;31.50;;;;;;482362;246;1162;-46
2021/12/24 09:57:41;;;;;;;;;;;21.20;31.50;;;;;;482346;246;1234;-47
2021/12/24 09:59:42;;;;;;;;;;;21.20;31.60;;;;;;482352;246;1619;-47
2021/12/24 10:01:44;;;;;;;;;;;21.10;31.70;;;;;;482376;246;1585;-46
2021/12/24 10:03:45;;;;;;;;;;;21.10;31.70;;;;;;482522;246;1077;-47
2021/12/24 10:05:46;;;;;;;;;;;21.10;31.70;;;;;;482580;246;2174;-46
2021/12/24 10:07:48;;;;;;;;;;;21.10;31.80;;;;;;482180;246;1274;-46
2021/12/24 10:09:49;;;;;;;;;;;21.00;31.80;;;;;;482246;246;1291;-46
2021/12/24 10:11:51;;;;;;;;;;;21.00;31.80;;;;;;482176;246;1352;-46
2021/12/24 10:13:55;;;;;;;;;;;21.00;31.80;;;;;;482405;246;1248;-46
2021/12/24 10:15:53;;;;;;;;;;;20.90;31.90;;;;;;481977;247;2217;-46
2021/12/24 10:17:54;;;;;;;;;;;21.00;31.90;;;;;;482640;246;1226;-46
2021/12/24 10:19:56;;;;;;;;;;;20.90;31.90;;;;;;482644;246;1226;-46
2021/12/24 10:21:57;;;;;;;;;;;20.90;31.90;;;;;;482113;246;1623;-46
2021/12/24 10:23:59;;;;;;;;;;;20.90;32.00;;;;;;482323;246;1241;-46
2021/12/24 10:26:00;;;;;;;;;;;20.90;32.10;;;;;;482295;246;2241;-46
2021/12/24 10:28:01;;;;;;;;;;;20.80;32.00;;;;;;482278;246;1217;-46
2021/12/24 10:30:02;;;;;;;;;;;20.80;32.00;;;;;;482260;246;1071;-46
2021/12/24 10:32:03;;;;;;;;;;;20.90;32.10;;;;;;482389;246;1244;-46
2021/12/24 10:34:05;;;;;;;;;;;20.80;32.10;;;;;;482712;246;976;-46
2021/12/24 10:36:07;;;;;;;;;;;20.80;32.20;;;;;;482532;246;1330;-46
2021/12/24 10:38:07;;;;;;;;;;;20.80;32.20;;;;;;482206;247;1604;-47
2021/12/24 10:40:10;;;;;;;;;;;20.70;32.10;;;;;;482472;246;1078;-46
2021/12/24 10:42:10;;;;;;;;;;;20.70;32.20;;;;;;482118;247;1935;-46
2021/12/24 10:44:11;;;;;;;;;;;20.70;32.20;;;;;;482405;246;1060;-46
2021/12/24 10:46:13;;;;;;;;;;;20.70;32.30;;;;;;482346;246;2122;-46
2021/12/24 10:48:14;;;;;;;;;;;20.70;32.30;;;;;;482661;246;1171;-47
2021/12/24 10:50:27;;;;;;;;;;;20.70;32.30;;;;;;482673;246;1203;-46
2021/12/24 10:52:31;;;;;;;;;;;20.70;32.30;;;;;;481561;247;1672;-46
2021/12/24 10:54:29;;;;;;;;;;;20.70;32.30;;;;;;482031;247;1727;-46
2021/12/24 10:56:30;;;;;;;;;;;20.60;32.30;;;;;;482415;246;1316;-46
2021/12/24 10:58:33;;;;;;;;;;;20.60;32.30;;;;;;482266;246;1192;-46
2021/12/24 11:00:33;;;;;;;;;;;20.60;32.30;;;;;;482176;246;2668;-46
2021/12/24 11:02:34;;;;;;;;;;;20.60;32.30;;;;;;482247;246;1204;-46
2021/12/24 11:04:35;;;;;;;;;;;20.60;32.40;;;;;;482532;246;1081;-46
2021/12/24 11:06:37;;;;;;;;;;;20.50;32.40;;;;;;482061;246;2126;-47
2021/12/24 11:08:38;;;;;;;;;;;20.60;32.40;;;;;;482232;246;1276;-47
2021/12/24 11:10:39;;;;;;;;;;;20.60;32.40;;;;;;482429;246;1374;-46
2021/12/24 11:12:40;;;;;;;;;;;20.60;32.40;;;;;;482316;246;1214;-46
2021/12/24 11:14:42;;;;;;;;;;;20.60;32.40;;;;;;482284;246;1070;-46
2021/12/24 11:16:45;;;;;;;;;;;20.50;32.50;;;;;;482391;246;1329;-46
2021/12/24 11:18:46;;;;;;;;;;;20.50;32.50;;;;;;482303;246;1537;-46
2021/12/24 11:20:46;;;;;;;;;;;20.50;32.50;;;;;;482172;246;2395;-46
2021/12/24 11:22:47;;;;;;;;;;;20.50;32.50;;;;;;482187;246;1143;-46
2021/12/24 11:24:48;;;;;;;;;;;20.50;32.50;;;;;;482271;246;998;-46
2021/12/24 11:26:51;;;;;;;;;;;20.50;32.50;;;;;;482225;246;2197;-47
2021/12/24 11:28:51;;;;;;;;;;;20.60;32.50;;;;;;482218;247;2410;-47
2021/12/24 11:30:52;;;;;;;;;;;20.50;32.50;;;;;;482614;246;1489;-46
2021/12/24 11:32:54;;;;;;;;;;;20.50;32.50;;;;;;482342;246;1255;-47
2021/12/24 11:34:55;;;;;;;;;;;20.50;32.50;;;;;;482389;246;1329;-46
2021/12/24 11:36:56;;;;;;;;;;;20.50;32.60;;;;;;482453;246;1226;-46
2021/12/24 11:38:58;;;;;;;;;;;20.50;32.60;;;;;;482415;246;1118;-46
2021/12/24 11:40:59;;;;;;;;;;;20.50;32.60;;;;;;482534;246;1206;-47
2021/12/24 11:43:02;;;;;;;;;;;20.50;32.60;;;;;;482218;246;1184;-46
2021/12/24 11:45:02;;;;;;;;;;;20.50;32.60;;;;;;482269;247;2400;-46
2021/12/24 11:47:03;;;;;;;;;;;20.40;32.60;;;;;;482253;246;2106;-46
2021/12/24 11:49:04;;;;;;;;;;;20.50;32.70;;;;;;482193;246;1218;-46
2021/12/24 11:51:06;;;;;;;;;;;20.40;32.60;;;;;;482405;246;1629;-46
2021/12/24 11:53:08;;;;;;;;;;;20.40;32.60;;;;;;482229;246;1289;-46
2021/12/24 11:55:08;;;;;;;;;;;20.40;32.60;;;;;;482317;246;2432;-46
2021/12/24 11:57:10;;;;;;;;;;;20.40;32.60;;;;;;482179;246;1556;-46
2021/12/24 11:59:11;;;;;;;;;;;20.40;32.60;;;;;;482452;246;1351;-46
2021/12/24 12:01:14;;;;;;;;;;;20.40;32.60;;;;;;482485;246;1456;-46
2021/12/24 12:03:13;;;;;;;;;;;20.40;32.70;;;;;;482519;247;2182;-46
2021/12/24 12:05:15;;;;;;;;;;;20.40;32.70;;;;;;482592;246;1162;-46
2021/12/24 12:07:17;;;;;;;;;;;20.40;32.70;;;;;;482304;246;2134;-46
2021/12/24 12:09:17;;;;;;;;;;;20.40;32.80;;;;;;482200;246;2196;-46
2021/12/24 12:11:20;;;;;;;;;;;20.40;32.70;;;;;;482467;246;1347;-46
2021/12/24 12:13:20;;;;;;;;;;;20.40;32.70;;;;;;482319;247;2335;-46
2021/12/24 12:15:21;;;;;;;;;;;20.40;32.70;;;;;;482230;246;1180;-46
2021/12/24 12:17:23;;;;;;;;;;;20.40;32.70;;;;;;482576;246;1142;-46
2021/12/24 12:19:26;;;;;;;;;;;20.40;32.70;;;;;;482360;246;1077;-46
2021/12/24 12:21:35;;;;;;;;;;;20.40;32.70;;;;;;482284;247;2333;-46
2021/12/24 12:23:27;;;;;;;;;;;20.40;32.80;;;;;;481624;247;2075;-46
2021/12/24 12:25:29;;;;;;;;;;;20.40;32.70;;;;;;482484;246;1085;-46
2021/12/24 12:27:30;;;;;;;;;;;20.40;32.80;;;;;;482169;246;2192;-46
2021/12/24 12:29:32;;;;;;;;;;;20.40;32.70;;;;;;482601;246;1252;-46
2021/12/24 12:31:33;;;;;;;;;;;20.40;32.70;;;;;;482613;246;1156;-46
2021/12/24 12:33:35;;;;;;;;;;;20.40;32.70;;;;;;482556;246;1225;-46
2021/12/24 12:35:36;;;;;;;;;;;20.40;32.60;;;;;;482243;246;1256;-46
2021/12/24 12:37:37;;;;;;;;;;;20.40;32.70;;;;;;482277;246;1225;-46
2021/12/24 12:39:38;;;;;;;;;;;20.40;32.70;;;;;;482452;246;1095;-46
2021/12/24 12:41:40;;;;;;;;;;;20.40;32.70;;;;;;482591;246;1223;-46
2021/12/24 12:43:41;;;;;;;;;;;20.40;32.70;;;;;;482226;246;1126;-46
2021/12/24 12:45:43;;;;;;;;;;;20.30;32.70;;;;;;482355;246;1067;-46
2021/12/24 12:47:44;;;;;;;;;;;20.30;32.80;;;;;;482311;246;2201;-47
2021/12/24 12:49:45;;;;;;;;;;;20.30;32.90;;;;;;482448;246;1194;-46
2021/12/24 12:51:47;;;;;;;;;;;20.40;32.80;;;;;;482118;246;1396;-46
2021/12/24 12:53:50;;;;;;;;;;;20.30;32.70;;;;;;482335;246;1124;-46
2021/12/24 12:55:49;;;;;;;;;;;20.40;32.80;;;;;;482157;246;2324;-46
2021/12/24 12:57:51;;;;;;;;;;;20.40;32.80;;;;;;482372;246;1168;-46
2021/12/24 12:59:52;;;;;;;;;;;20.40;32.80;;;;;;482433;246;1412;-46